• Join FlightAware (Why Join?)
  • Login
  • US Flag 
07:21PM EDT


 

Airport Tracker/Info


-or-


 

Live Flight TrackerFlight Track Log ✈ ACA1125 ✈ 23-Jun-2013 ✈ CYYZ - CYXE

Flight Track Log - Related Links

Times and Time Zones

All times are in EDT time to prevent confusion due to time zone crossing. See the ACA1125 flight status page for this flight to view local times or setup timezone preferences in your user account.

Time Position Orientation Groundspeed Altitude Reporting Facility
EDT Latitude Longitude Course Direction KTS MPH feet Rate Location/Type
03:19PM 43.6833 -79.6333 303° West 30 35 600  Level Toronto Center
03:20PM 43.6500 -79.6500 200° South 150 173 2,100 1,680 Climbing Toronto Center
03:21PM 43.6167 -79.7333 241° Southwest 200 230 4,100 1,980 Climbing Toronto Center
03:22PM 43.6167 -79.8000 270° West 210 242 6,100 2,160 Climbing Toronto Center
03:23PM 43.9757 -80.3022 303° West  Level FlightAware Approximate
03:23PM 43.6667 -79.8667 316° Northwest 260 299 8,500  Level Toronto Center
03:24PM 44.0415 -80.4410 303° West  Level FlightAware Approximate
03:24PM 43.7167 -79.9500 310° West 280 322 11,000  Level Toronto Center
03:25PM 44.1073 -80.5800 303° West  Level FlightAware Approximate
03:25PM 43.7667 -80.0333 310° West 290 334 12,700  Level Toronto Center
03:26PM 43.8333 -80.1333 313° West 320 368 15,000 1,920 Climbing Toronto Center
03:27PM 43.9000 -80.2333 313° West 340 391 16,600 1,740 Climbing Toronto Center
03:28PM 43.9667 -80.3500 308° West 360 414 18,500 1,560 Climbing Toronto Center
03:29PM 44.0333 -80.4500 313° West 380 437 19,800 1,440 Climbing Toronto Center
03:30PM 44.1000 -80.5667 309° West 390 449 21,500 1,500 Climbing Toronto Center
03:31PM 44.1833 -80.6833 315° West 390 449 22,800 1,200 Climbing Toronto Center
03:32PM 44.2667 -80.8000 315° West 410 472 23,900 1,260 Climbing Toronto Center
03:33PM 44.3333 -80.9167 309° West 420 483 25,400 1,260 Climbing Toronto Center
03:34PM 44.4000 -81.0333 309° West 420 483 26,400 900 Climbing Toronto Center
03:35PM 44.4833 -81.1500 315° West 430 495 27,300 900 Climbing Toronto Center
03:36PM 44.5667 -81.3000 308° West 440 506 28,200 960 Climbing Toronto Center
03:37PM 44.6500 -81.4167 315° West 440 506 29,300 1,080 Climbing Toronto Center
03:38PM 44.7333 -81.5500 311° West 440 506 30,400 960 Climbing Toronto Center
03:39PM 44.8167 -81.6833 311° West 440 506 31,300 900 Climbing Toronto Center
03:40PM 44.9000 -81.8000 315° West 440 506 32,300 900 Climbing Toronto Center
03:41PM 44.9833 -81.9500 308° West 440 506 33,200 900 Climbing Toronto Center
03:42PM 45.0500 -82.0667 309° West 430 495 34,200 720 Climbing Toronto Center
03:43PM 45.1333 -82.1833 315° West 430 495 34,700 600 Climbing Toronto Center
03:44PM 45.2167 -82.3000 315° West 430 495 35,400 600 Climbing Toronto Center
03:45PM 45.3000 -82.4333 312° West 430 495 36,000 300 Climbing Toronto Center
03:46PM 45.3833 -82.5833 308° West 440 506 36,000  Level Toronto Center
03:47PM 45.4500 -82.7000 309° West 450 518 36,000  Level Toronto Center
03:48PM 45.5333 -82.8500 308° West 450 518 36,000  Level Toronto Center
03:49PM 45.6167 -82.9667 316° Northwest 450 518 36,000  Level Toronto Center
03:50PM 45.7000 -83.1167 309° West 440 506 36,000  Level Toronto Center
03:51PM 45.7833 -83.2500 312° West 450 518 36,000  Level Toronto Center
03:52PM 45.8500 -83.3833 306° West 450 518 36,000  Level Toronto Center
03:53PM 45.9333 -83.5167 312° West 440 506 36,000  Level Toronto Center
03:54PM 46.0167 -83.6500 312° West 440 506 36,000  Level Toronto Center
03:55PM 46.0833 -83.8000 303° West 440 506 36,000  Level Toronto Center
03:56PM 46.1667 -83.9167 316° Northwest 440 506 36,000  Level Toronto Center
03:57PM 46.2500 -84.0500 312° West 440 506 36,000  Level Toronto Center
03:58PM 46.3333 -84.2000 309° West 440 506 36,000  Level Toronto Center
03:59PM 46.4000 -84.3167 310° West 440 506 36,000  Level Toronto Center
04:00PM 46.4667 -84.5000 298° West 450 518 36,000  Level Toronto Center
04:01PM 46.5167 -84.6500 296° West 440 506 36,000  Level Toronto Center
04:02PM 46.5833 -84.8000 303° West 430 495 36,000  Level Toronto Center
04:03PM 46.6500 -84.9500 303° West 440 506 36,000  Level Toronto Center
04:04PM 46.7000 -85.1000 296° West 440 506 36,100  Climbing Toronto Center
04:05PM 46.7667 -85.2500 303° West 440 506 36,000 -60 Descending Toronto Center
04:06PM 46.8167 -85.4333 292° West 440 506 36,000  Level Toronto Center
04:07PM 46.8833 -85.5833 303° West 440 506 36,000  Level Toronto Center
04:08PM 46.9333 -85.7333 296° West 440 506 36,000  Level Toronto Center
04:09PM 47.0000 -85.8833 303° West 440 506 36,000  Level Toronto Center
04:10PM 47.0500 -86.0500 294° West 440 506 36,000  Level Toronto Center
04:11PM 47.1167 -86.2000 303° West 440 506 36,000  Level Toronto Center
04:12PM 47.1667 -86.3833 292° West 440 506 36,000  Level Toronto Center
04:13PM 47.2333 -86.5333 303° West 440 506 36,000  Level Toronto Center
04:14PM 47.2833 -86.6833 296° West 440 506 36,000  Level Toronto Center
04:15PM 47.3500 -86.8500 301° West 440 506 36,000  Level Toronto Center
04:16PM 47.4000 -87.0000 296° West 440 506 36,000  Level Toronto Center
04:17PM 47.4500 -87.1833 292° West 450 518 36,000  Level Toronto Center
04:18PM 47.5167 -87.3333 303° West 450 518 36,000  Level Toronto Center
04:19PM 47.5833 -87.5000 301° West 450 518 36,000  Level Toronto Center
04:20PM 47.6500 -87.6500 303° West 450 518 36,000  Level Toronto Center
04:21PM 47.7000 -87.8333 292° West 450 518 36,000  Level Toronto Center
04:22PM 47.7500 -88.0000 294° West 450 518 36,000  Level Toronto Center
04:23PM 47.8167 -88.1500 304° West 450 518 36,000  Level Toronto Center
04:24PM 47.8667 -88.3167 294° West 440 506 36,000  Level Winnipeg Center
04:25PM 47.9333 -88.4833 301° West 440 506 36,000  Level Winnipeg Center
04:26PM 47.9667 -88.6167 291° West 440 506 36,000  Level Winnipeg Center
04:27PM 48.0333 -88.8167 297° West 440 506 36,000  Level Winnipeg Center
04:28PM 48.0833 -88.9500 299° West 440 506 36,000  Level Winnipeg Center
04:29PM 48.1500 -89.1167 301° West 440 506 36,000  Level Winnipeg Center
04:30PM 48.1833 -89.2833 287° West 430 495 36,000  Level Winnipeg Center
04:31PM 48.2500 -89.4333 304° West 430 495 36,000  Level Winnipeg Center
04:32PM 48.3000 -89.6167 292° West 430 495 36,000  Level Winnipeg Center
04:33PM 48.3333 -89.7667 289° West 430 495 36,000  Level Winnipeg Center
04:34PM 48.3833 -89.9333 294° West 430 495 36,000  Level Winnipeg Center
04:35PM 48.4333 -90.1000 294° West 430 495 36,000  Level Winnipeg Center
04:36PM 48.4833 -90.2833 292° West 430 495 36,000  Level Winnipeg Center
04:37PM 48.5333 -90.4500 294° West 430 495 36,000  Level Winnipeg Center
04:38PM 48.5833 -90.6000 297° West 420 483 36,000  Level Winnipeg Center
04:39PM 48.6167 -90.7667 287° West 430 495 36,000  Level Winnipeg Center
04:40PM 48.6667 -90.9333 294° West 430 495 36,000  Level Winnipeg Center
04:41PM 48.7000 -91.0833 289° West 430 495 36,000  Level Winnipeg Center
04:42PM 48.7667 -91.2833 297° West 430 495 36,000  Level Winnipeg Center
04:43PM 48.8000 -91.4333 289° West 430 495 36,000  Level Winnipeg Center
04:44PM 48.8500 -91.6000 295° West 430 495 36,000  Level Winnipeg Center
04:45PM 48.8833 -91.7833 286° West 440 506 36,000  Level Winnipeg Center
04:46PM 48.9500 -91.9500 301° West 440 506 36,000  Level Winnipeg Center
04:47PM 48.9833 -92.1167 287° West 440 506 36,000  Level Winnipeg Center
04:48PM 49.0333 -92.3000 293° West 440 506 36,000  Level Winnipeg Center
04:49PM 49.0667 -92.4667 287° West 440 506 36,000  Level Winnipeg Center
04:50PM 49.1333 -92.6500 299° West 440 506 36,000  Level Winnipeg Center
04:51PM 49.1667 -92.8167 287° West 450 518 36,000  Level Winnipeg Center
04:52PM 49.2000 -93.0167 284° West 450 518 36,000  Level Winnipeg Center
04:53PM 49.2500 -93.1667 297° West 450 518 36,000  Level Winnipeg Center
04:54PM 49.3000 -93.3500 293° West 450 518 36,000  Level Winnipeg Center
04:55PM 49.3500 -93.5500 291° West 450 518 36,000  Level Winnipeg Center
04:56PM 49.3833 -93.7333 286° West 440 506 36,000  Level Winnipeg Center
04:57PM 49.4333 -93.9000 295° West 440 506 36,000  Level Winnipeg Center
04:58PM 49.4667 -94.0833 286° West 440 506 36,000  Level Winnipeg Center
04:59PM 49.5167 -94.2667 293° West 440 506 36,000  Level Winnipeg Center
05:00PM 49.5500 -94.4333 287° West 440 506 36,000  Level Winnipeg Center
05:01PM 49.5833 -94.6167 286° West 440 506 36,000  Level Winnipeg Center
05:02PM 49.6167 -94.8000 286° West 440 506 36,000  Level Winnipeg Center
05:03PM 49.6833 -94.9833 299° West 440 506 36,000  Level Winnipeg Center
05:04PM 49.7167 -95.1833 285° West 450 518 36,000  Level Winnipeg Center
05:05PM 49.7500 -95.3667 286° West 450 518 36,000  Level Winnipeg Center
05:06PM 49.7833 -95.5333 287° West 460 529 36,000  Level Winnipeg Center
05:07PM 49.8167 -95.7167 286° West 460 529 36,000  Level Winnipeg Center
05:08PM 49.8667 -95.9000 293° West 460 529 36,000  Level Winnipeg Center
05:09PM 49.9167 -96.1167 290° West 460 529 36,000  Level Winnipeg Center
05:10PM 49.9500 -96.2833 287° West 460 529 36,000  Level Winnipeg Center
05:11PM 49.9833 -96.5000 284° West 460 529 36,000  Level Winnipeg Center
05:12PM 50.0333 -96.6833 293° West 470 541 36,000  Level Winnipeg Center
05:13PM 50.0667 -96.8833 285° West 470 541 36,000  Level Winnipeg Center
05:14PM 50.1000 -97.0667 286° West 470 541 36,000  Level Winnipeg Center
05:15PM 50.1500 -97.2833 290° West 480 552 36,000  Level Winnipeg Center
05:16PM 50.1833 -97.4667 286° West 480 552 36,000  Level Winnipeg Center
05:17PM 50.2167 -97.6667 285° West 480 552 36,000  Level Winnipeg Center
05:18PM 50.2500 -97.8833 284° West 480 552 36,000  Level Winnipeg Center
05:19PM 50.3000 -98.1000 290° West 480 552 36,000  Level Winnipeg Center
05:20PM 50.3167 -98.2833 278° West 480 552 36,000  Level Winnipeg Center
05:21PM 50.3667 -98.4833 291° West 480 552 36,000  Level Winnipeg Center
05:22PM 50.4000 -98.6667 286° West 480 552 36,000  Level Winnipeg Center
05:23PM 50.4500 -98.8833 290° West 480 552 36,000  Level Winnipeg Center
05:24PM 50.5000 -99.1000 290° West 490 564 36,000  Level Winnipeg Center
05:25PM 50.5500 -99.2833 293° West 490 564 36,000  Level Winnipeg Center
05:26PM 50.5833 -99.5000 284° West 490 564 36,000  Level Winnipeg Center
05:27PM 50.6333 -99.6833 293° West 490 564 36,000  Level Winnipeg Center
05:28PM 50.6833 -99.9000 290° West 500 575 36,000  Level Winnipeg Center
05:29PM 50.7333 -100.1167 290° West 500 575 36,000  Level Winnipeg Center
05:30PM 50.7833 -100.3333 290° West 500 575 36,000  Level Winnipeg Center
05:31PM 50.8333 -100.5167 293° West 500 575 36,000  Level Winnipeg Center
05:32PM 50.8667 -100.7333 284° West 500 575 36,000  Level Winnipeg Center
05:33PM 50.9167 -100.9167 293° West 500 575 36,000  Level Winnipeg Center
05:34PM 50.9667 -101.1333 290° West 500 575 36,000  Level Winnipeg Center
05:35PM 51.0167 -101.3500 290° West 500 575 36,000  Level Winnipeg Center
05:36PM 51.0667 -101.5667 290° West 500 575 36,000  Level Winnipeg Center
05:37PM 51.1000 -101.7667 285° West 500 575 36,000  Level Winnipeg Center
05:38PM 51.1500 -101.9833 290° West 500 575 36,000  Level Winnipeg Center
05:39PM 51.1833 -102.2000 284° West 500 575 36,000  Level Winnipeg Center
05:40PM 51.2333 -102.4000 292° West 500 575 36,000  Level Winnipeg Center
05:41PM 51.2833 -102.6167 290° West 500 575 36,000  Level Winnipeg Center
05:42PM 51.3167 -102.8000 286° West 500 575 36,000  Level Winnipeg Center
05:43PM 51.3833 -103.0333 295° West 500 575 36,000  Level Winnipeg Center
05:44PM 51.4167 -103.2167 286° West 500 575 36,000  Level Winnipeg Center
05:45PM 51.4667 -103.4500 289° West 490 564 36,000 -480 Level Winnipeg Center
05:46PM 51.5000 -103.6667 284° West 490 564 35,100 -1,800 Descending Winnipeg Center
05:47PM 51.5167 -103.8833 277° West 480 552 32,500 -2,160 Descending Winnipeg Center
05:48PM 51.5333 -104.0833 278° West 470 541 30,800 -1,800 Descending Winnipeg Center
05:49PM 51.5833 -104.2667 294° West 460 529 28,900 -2,100 Descending Winnipeg Center
05:50PM 51.6167 -104.4667 285° West 450 518 26,700 -2,100 Descending Winnipeg Center
05:51PM 51.6667 -104.6333 296° West 430 495 24,800 -1,980 Descending Winnipeg Center
05:52PM 51.7167 -104.8167 294° West 400 460 22,800 -1,860 Descending Winnipeg Center
05:53PM 51.7500 -104.9500 292° West 380 437 21,100 -1,740 Descending Winnipeg Center
05:54PM 51.7833 -105.1000 290° West 350 403 19,400 -1,800 Descending Winnipeg Center
05:55PM 51.8167 -105.2333 292° West 330 380 17,600 -1,500 Descending Winnipeg Center
05:56PM 51.8500 -105.3500 295° West 310 357 16,400 -1,320 Descending Winnipeg Center
05:57PM 51.8833 -105.5000 290° West 290 334 15,000 -1,380 Descending Winnipeg Center
05:58PM 51.9167 -105.6167 295° West 280 322 13,700 -1,380 Descending Winnipeg Center
05:59PM 51.9500 -105.7167 298° West 280 322 12,300 -1,320 Descending Winnipeg Center
06:00PM 51.9667 -105.8333 283° West 270 311 11,100 -1,260 Descending Winnipeg Center
06:01PM 52.0000 -105.9500 295° West 260 299 9,800 -1,260 Descending Winnipeg Center
06:02PM 52.0167 -106.0333 288° West 250 288 8,600 -1,200 Descending Winnipeg Center
06:03PM 52.0500 -106.1500 295° West 250 288 7,500 -1,200 Descending Winnipeg Center
06:04PM 52.0833 -106.2500 299° West 250 288 6,300 -1,200 Descending Winnipeg Center
06:05PM 52.1000 -106.3500 285° West 240 276 5,100 -1,200 Descending Winnipeg Center
06:06PM 52.1333 -106.4500 299° West 240 276 4,000 -780 Descending Winnipeg Center
06:07PM 52.1333 -106.5500 270° West 220 253 3,600 -660 Descending Winnipeg Center
06:08PM 52.1500 -106.6500 285° West 200 230 2,700 -960 Descending Winnipeg Center
06:09PM 52.1500 -106.7000 270° West 160 184 1,700 -600 Descending Winnipeg Center
06:10PM 52.1500 -106.7333 270° West 60 69 1,600 -120 Descending Winnipeg Center